Time;durP1;ratioP1;P1;durP2;ratioP2;P2;SDS_P1;SDS_P2;PMS_P1;PMS_P2;Temp;Humidity;BMP_temperature;BMP_pressure;BME280_temperature;BME280_humidity;BME280_pressure;Samples;Min_cycle;Max_cycle;Signal;HPM_P1;HPM_P2
2021/01/31 00:00:16;;;;;;;57.25;28.98;;;;;;;3.46;92.13;96156.78;4901919;29;20115;-79
2021/01/31 00:02:42;;;;;;;57.05;27.55;;;;;;;3.60;90.59;96154.22;4917241;29;20090;-79
2021/01/31 00:05:08;;;;;;;61.13;28.92;;;;;;;3.76;91.18;96152.38;4901933;29;20460;-79
2021/01/31 00:07:33;;;;;;;51.50;24.90;;;;;;;3.78;89.60;96137.28;4918706;29;20036;-79
2021/01/31 00:09:59;;;;;;;48.17;25.27;;;;;;;3.92;89.58;96129.41;4916909;29;20136;-78
2021/01/31 00:12:24;;;;;;;50.97;24.92;;;;;;;3.92;88.75;96149.69;4918843;29;20035;-77
2021/01/31 00:14:50;;;;;;;49.85;24.58;;;;;;;3.85;89.00;96128.03;4917549;29;20036;-80
2021/01/31 00:17:15;;;;;;;44.83;20.05;;;;;;;3.85;87.50;96143.91;4902426;29;20488;-78
2021/01/31 00:19:41;;;;;;;38.58;20.63;;;;;;;3.81;88.53;96148.53;4920680;29;20031;-78
2021/01/31 00:22:07;;;;;;;42.30;20.50;;;;;;;3.89;88.23;96157.81;4920535;29;20046;-78
2021/01/31 00:24:32;;;;;;;40.20;19.75;;;;;;;3.83;89.19;96141.38;4903653;29;20063;-79
2021/01/31 00:26:58;;;;;;;38.92;19.35;;;;;;;3.91;88.56;96145.38;4917654;29;20028;-79
2021/01/31 00:29:24;;;;;;;46.10;22.90;;;;;;;3.95;88.77;96166.25;4901188;29;20052;-80
2021/01/31 00:31:50;;;;;;;40.50;19.45;;;;;;;3.96;88.13;96162.66;4901903;29;20024;-80
2021/01/31 00:34:17;;;;;;;39.15;19.38;;;;;;;3.99;87.30;96169.56;4907971;29;20034;-80
2021/01/31 00:36:44;;;;;;;30.48;13.05;;;;;;;3.98;86.15;96159.91;4901764;29;20460;-80
2021/01/31 00:39:10;;;;;;;30.58;15.10;;;;;;;4.05;86.75;96150.69;4893675;29;20056;-80
2021/01/31 00:41:36;;;;;;;37.42;17.80;;;;;;;4.06;86.72;96160.34;4916754;29;20064;-79
2021/01/31 00:44:03;;;;;;;37.17;18.45;;;;;;;4.11;87.53;96156.47;4901015;29;20488;-81
2021/01/31 00:46:35;;;;;;;36.60;17.25;;;;;;;4.09;87.62;96147.75;4924877;29;20032;-79
2021/01/31 00:49:00;;;;;;;28.25;15.65;;;;;;;4.13;87.08;96161.66;4929196;29;20409;-78
2021/01/31 00:51:26;;;;;;;32.90;15.63;;;;;;;4.01;88.18;96170.31;4905566;29;20028;-80
2021/01/31 00:53:52;;;;;;;24.60;11.85;;;;;;;4.02;87.65;96172.03;4901437;29;20028;-78
2021/01/31 00:56:17;;;;;;;23.10;11.63;;;;;;;3.96;87.11;96162.66;4899757;29;20120;-78
2021/01/31 00:58:46;;;;;;;23.70;9.65;;;;;;;4.03;86.52;96163.16;4921627;29;20049;-80
2021/01/31 01:01:13;;;;;;;16.70;9.75;;;;;;;4.09;86.51;96154.88;4911295;29;20087;-79
2021/01/31 01:03:39;;;;;;;14.73;8.15;;;;;;;4.16;84.94;96159.69;4898835;29;20493;-78
2021/01/31 01:06:04;;;;;;;18.25;9.13;;;;;;;4.16;84.51;96142.97;4909947;29;20099;-80
2021/01/31 01:08:30;;;;;;;17.92;9.43;;;;;;;4.26;85.06;96162.66;4916763;29;20512;-80
2021/01/31 01:10:56;;;;;;;20.00;11.13;;;;;;;4.34;83.69;96176.25;4908679;29;20094;-80
2021/01/31 01:13:22;;;;;;;24.10;11.80;;;;;;;4.37;83.75;96160.19;4901506;29;20099;-80
2021/01/31 01:15:47;;;;;;;21.20;10.85;;;;;;;4.41;82.07;96164.38;4902043;29;20032;-79
2021/01/31 01:18:13;;;;;;;24.10;11.65;;;;;;;4.46;82.75;96156.19;4900932;29;20115;-80
2021/01/31 01:20:38;;;;;;;26.80;13.15;;;;;;;4.49;84.39;96175.34;4916637;29;20028;-80
2021/01/31 01:23:04;;;;;;;23.73;12.00;;;;;;;4.49;83.65;96133.00;4916359;29;20028;-80
2021/01/31 01:25:29;;;;;;;26.42;13.13;;;;;;;4.41;84.31;96156.44;4932003;29;20568;-80
2021/01/31 01:27:55;;;;;;;39.65;19.35;;;;;;;4.47;82.96;96164.00;4926524;29;20024;-79
2021/01/31 01:30:24;;;;;;;56.40;21.00;;;;;;;4.60;80.41;96148.25;4903496;29;20038;-79
2021/01/31 01:32:50;;;;;;;58.97;21.38;;;;;;;4.78;78.06;96158.56;4903786;29;20050;-79
2021/01/31 01:35:16;;;;;;;27.00;12.98;;;;;;;5.05;78.45;96144.53;4935159;29;20031;-80
2021/01/31 01:37:42;;;;;;;36.90;17.55;;;;;;;5.05;78.45;96157.78;4919284;29;20432;-79
2021/01/31 01:40:29;;;;;;;27.67;14.30;;;;;;;5.17;77.55;96165.00;4903542;29;20482;-79
2021/01/31 01:42:55;;;;;;;29.08;13.52;;;;;;;5.22;76.85;96142.53;4903416;29;20027;-80
2021/01/31 01:45:22;;;;;;;24.88;13.65;;;;;;;5.21;78.36;96156.72;4916278;29;20114;-80
2021/01/31 01:47:48;;;;;;;25.83;14.25;;;;;;;5.24;78.95;96150.38;4900191;29;20405;-79
2021/01/31 01:50:48;;;;;;;32.15;15.77;;;;;;;5.28;78.81;96157.19;4915920;29;20051;-80
2021/01/31 01:53:15;;;;;;;33.83;16.05;;;;;;;5.15;78.97;96145.66;4874020;29;20048;-80
2021/01/31 01:56:03;;;;;;;21.38;11.70;;;;;;;5.27;76.71;96150.19;4900208;29;20489;-80
2021/01/31 01:58:29;;;;;;;27.90;14.93;;;;;;;5.39;76.45;96144.09;4945351;29;20031;-81
2021/01/31 02:00:55;;;;;;;23.85;12.60;;;;;;;5.43;75.87;96138.53;4916196;29;20032;-80
2021/01/31 02:03:24;;;;;;;34.90;17.08;;;;;;;5.42;77.62;96160.66;4899751;29;20032;-79
2021/01/31 02:05:56;;;;;;;31.92;16.98;;;;;;;5.51;78.26;96153.91;4901407;29;20519;-81
2021/01/31 02:08:21;;;;;;;29.73;16.23;;;;;;;5.46;77.49;96153.38;4915485;29;20507;-80
2021/01/31 02:10:47;;;;;;;37.00;16.70;;;;;;;5.55;77.68;96128.91;4899849;29;20032;-80
2021/01/31 02:13:12;;;;;;;36.53;16.88;;;;;;;5.46;77.81;96135.66;4919086;29;20031;-80
2021/01/31 02:15:38;;;;;;;43.88;19.38;;;;;;;5.55;75.96;96138.66;4899699;29;20059;-80
2021/01/31 02:18:42;;;;;;;66.40;27.92;;;;;;;5.65;77.00;96161.00;4917496;29;20044;-81
2021/01/31 02:21:41;;;;;;;55.22;23.38;;;;;;;5.66;77.37;96152.94;4897827;29;20044;-80
2021/01/31 02:24:40;;;;;;;39.72;18.73;;;;;;;5.71;75.95;96137.59;4934988;29;20570;-79
2021/01/31 02:27:43;;;;;;;44.90;20.50;;;;;;;5.68;77.98;96142.22;4916946;29;20036;-79
2021/01/31 02:30:26;;;;;;;26.70;13.55;;;;;;;5.71;76.43;96148.19;4934396;29;20504;-80
2021/01/31 02:33:25;;;;;;;32.55;16.38;;;;;;;5.71;76.91;96152.63;4916306;29;20036;-80
2021/01/31 02:36:05;;;;;;;34.47;16.20;;;;;;;5.79;76.08;96132.63;4918206;29;20038;-80
2021/01/31 02:38:35;;;;;;;32.45;16.33;;;;;;;5.80;75.73;96136.97;4915414;29;20027;-80
2021/01/31 02:41:08;;;;;;;36.78;18.52;;;;;;;5.77;76.10;96153.09;4902350;29;20507;-80
2021/01/31 02:43:42;;;;;;;22.40;11.25;;;;;;;5.87;72.24;96140.13;4902036;29;20529;-80
2021/01/31 02:46:27;;;;;;;32.92;15.98;;;;;;;6.06;72.91;96142.41;4917755;29;20110;-80
2021/01/31 02:49:25;;;;;;;35.40;16.70;;;;;;;6.09;73.33;96160.78;4918200;29;20035;-80
2021/01/31 02:52:43;;;;;;;29.95;13.85;;;;;;;6.12;73.17;96164.03;4912157;29;20047;-81
2021/01/31 02:55:14;;;;;;;26.00;13.13;;;;;;;6.07;73.39;96147.59;4917464;29;20043;-80
2021/01/31 02:58:16;;;;;;;33.50;16.33;;;;;;;6.11;74.47;96150.91;4934101;29;20027;-80
2021/01/31 03:00:47;;;;;;;25.08;13.23;;;;;;;6.08;73.55;96148.44;4914710;29;20032;-81
2021/01/31 03:03:23;;;;;;;28.90;13.98;;;;;;;6.08;74.93;96137.81;4917884;29;20086;-80
2021/01/31 03:05:52;;;;;;;19.42;10.93;;;;;;;6.04;72.08;96131.00;4916861;29;20063;-80
2021/01/31 03:08:25;;;;;;;34.03;15.65;;;;;;;6.30;71.17;96132.78;4902188;29;20623;-80
2021/01/31 03:11:11;;;;;;;23.92;11.43;;;;;;;6.27;69.86;96125.88;4899092;29;20574;-80
2021/01/31 03:13:56;;;;;;;24.13;11.77;;;;;;;6.32;71.76;96131.72;4902330;29;20039;-80
2021/01/31 03:16:59;;;;;;;28.55;13.68;;;;;;;6.31;73.86;96139.78;4902104;29;20130;-80
2021/01/31 03:19:48;;;;;;;28.48;15.32;;;;;;;6.12;73.78;96128.72;4914759;29;20544;-79
2021/01/31 03:22:22;;;;;;;32.92;17.02;;;;;;;6.11;73.08;96148.25;4900154;29;20412;-79
2021/01/31 03:24:54;;;;;;;34.22;15.77;;;;;;;6.09;73.86;96144.84;4898936;29;20036;-79
2021/01/31 03:27:31;;;;;;;65.82;26.00;;;;;;;6.12;72.83;96134.03;4902079;29;20031;-79
2021/01/31 03:29:57;;;;;;;32.40;15.07;;;;;;;6.21;71.83;96130.75;4914557;29;20147;-80
2021/01/31 03:32:52;;;;;;;38.75;16.15;;;;;;;6.24;71.34;96143.81;4901816;29;20508;-80
2021/01/31 03:35:21;;;;;;;32.00;14.32;;;;;;;6.28;71.77;96124.91;4901532;29;20032;-80
2021/01/31 03:38:07;;;;;;;30.70;13.68;;;;;;;6.32;72.37;96136.19;4914546;29;20496;-80
2021/01/31 03:40:33;;;;;;;26.70;12.40;;;;;;;6.32;71.12;96123.75;4894475;29;20047;-80
2021/01/31 03:42:59;;;;;;;26.95;12.73;;;;;;;6.35;70.03;96114.72;4917510;29;20142;-80
2021/01/31 03:45:32;;;;;;;53.10;20.42;;;;;;;6.43;71.65;96133.63;4901809;29;20063;-79
2021/01/31 03:48:07;;;;;;;38.72;15.82;;;;;;;6.52;69.21;96117.09;4904830;29;20031;-81
2021/01/31 03:50:33;;;;;;;48.83;19.25;;;;;;;6.54;71.57;96120.47;4917265;29;20519;-80
2021/01/31 03:52:59;;;;;;;42.58;17.65;;;;;;;6.56;70.90;96105.28;4901602;29;20036;-79
2021/01/31 03:55:25;;;;;;;45.75;17.92;;;;;;;6.58;69.82;96100.72;4901769;29;20409;-79
2021/01/31 03:58:03;;;;;;;16.75;8.90;;;;;;;6.69;68.25;96111.44;4901794;29;20028;-78
2021/01/31 04:00:31;;;;;;;13.52;6.88;;;;;;;6.73;67.45;96099.66;4900227;29;20062;-79
2021/01/31 04:03:03;;;;;;;15.75;6.88;;;;;;;6.68;66.72;96091.16;4887718;29;20043;-78
2021/01/31 04:05:30;;;;;;;9.98;5.97;;;;;;;6.71;68.44;96103.34;4916277;29;20492;-80
2021/01/31 04:07:57;;;;;;;15.80;8.48;;;;;;;6.62;68.40;96090.72;4917699;29;20031;-80
2021/01/31 04:10:23;;;;;;;15.32;7.22;;;;;;;6.60;68.60;96087.31;4917351;29;21580;-80
2021/01/31 04:12:53;;;;;;;25.58;12.77;;;;;;;6.54;69.59;96091.28;4914444;29;20024;-79
2021/01/31 04:15:39;;;;;;;20.98;11.45;;;;;;;6.55;69.50;96079.69;4917775;29;20039;-80
2021/01/31 04:18:05;;;;;;;9.95;5.10;;;;;;;6.59;67.66;96062.56;4935890;29;20032;-81
2021/01/31 04:20:32;;;;;;;10.40;5.05;;;;;;;6.66;67.81;96076.28;4919724;29;20172;-80
2021/01/31 04:22:58;;;;;;;10.90;5.88;;;;;;;6.65;67.59;96070.09;4917540;29;20028;-80
2021/01/31 04:25:23;;;;;;;13.93;7.32;;;;;;;6.57;69.28;96071.59;4919309;29;20031;-79
2021/01/31 04:27:49;;;;;;;22.15;9.60;;;;;;;6.60;68.45;96077.56;4901400;29;20489;-80
2021/01/31 04:30:15;;;;;;;15.98;7.50;;;;;;;6.56;68.16;96073.41;4901673;29;20034;-80
2021/01/31 04:32:41;;;;;;;32.90;15.10;;;;;;;6.45;69.75;96086.59;4917296;29;20027;-80
2021/01/31 04:35:08;;;;;;;35.03;16.60;;;;;;;6.31;70.47;96086.69;4904674;29;20534;-80
2021/01/31 04:37:34;;;;;;;31.23;14.98;;;;;;;6.26;71.54;96092.31;4917208;29;20424;-81
2021/01/31 04:40:00;;;;;;;20.38;11.20;;;;;;;6.16;71.55;96103.66;4901619;29;20035;-80
2021/01/31 04:42:25;;;;;;;39.53;15.00;;;;;;;6.02;73.39;96101.09;4904446;29;20047;-80
2021/01/31 04:44:51;;;;;;;82.32;36.53;;;;;;;5.96;72.95;96089.94;4916963;29;20485;-80
2021/01/31 04:47:53;;;;;;;33.33;15.13;;;;;;;6.01;70.68;96094.94;4904745;29;20061;-81
2021/01/31 04:50:33;;;;;;;24.48;12.38;;;;;;;6.02;69.70;96085.16;4901327;29;20032;-80
2021/01/31 04:53:23;;;;;;;39.63;17.55;;;;;;;6.05;70.08;96098.22;4904484;29;20050;-80
2021/01/31 04:56:00;;;;;;;48.65;22.85;;;;;;;5.95;73.47;96105.94;4937473;29;20436;-80
2021/01/31 04:58:34;;;;;;;75.45;35.88;;;;;;;5.73;73.58;96090.56;4919992;29;20034;-80
2021/01/31 05:01:04;;;;;;;80.38;36.15;;;;;;;5.73;71.94;96087.94;4916907;29;20032;-80
2021/01/31 05:03:31;;;;;;;102.13;45.90;;;;;;;5.75;72.73;96086.00;4919829;29;20463;-80
2021/01/31 05:06:08;;;;;;;101.45;46.75;;;;;;;5.72;72.91;96080.09;4903993;29;20027;-80
2021/01/31 05:08:33;;;;;;;99.85;44.97;;;;;;;5.65;73.04;96069.03;4919709;29;20040;-79
2021/01/31 05:11:23;;;;;;;107.75;47.92;;;;;;;5.60;73.12;96063.16;4919603;29;20039;-80
2021/01/31 05:14:09;;;;;;;73.35;31.23;;;;;;;5.69;71.33;96074.97;4919914;29;20031;-80
2021/01/31 05:16:35;;;;;;;64.85;27.73;;;;;;;5.70;70.74;96064.25;4917460;29;20043;-79
2021/01/31 05:19:05;;;;;;;70.18;31.75;;;;;;;5.76;72.39;96087.72;4916706;29;20036;-79
2021/01/31 05:21:33;;;;;;;93.90;42.13;;;;;;;5.66;74.68;96081.31;4917641;29;20028;-80
2021/01/31 05:24:19;;;;;;;89.50;40.35;;;;;;;5.57;74.44;96079.28;4903991;29;20419;-79
2021/01/31 05:26:57;;;;;;;35.97;17.35;;;;;;;5.46;73.59;96081.78;4919368;29;20562;-80
2021/01/31 05:29:32;;;;;;;89.85;38.80;;;;;;;5.47;74.13;96079.03;4899456;29;20048;-80
2021/01/31 05:32:05;;;;;;;98.88;45.38;;;;;;;5.46;76.00;96089.75;4885261;29;20036;-79
2021/01/31 05:34:38;;;;;;;104.00;47.42;;;;;;;5.36;76.98;96089.50;4915901;29;20036;-79
2021/01/31 05:37:10;;;;;;;110.22;55.33;;;;;;;5.26;76.58;96112.22;4919212;29;20036;-79
2021/01/31 05:39:42;;;;;;;58.30;31.15;;;;;;;5.20;76.85;96101.19;4918407;29;20165;-80
2021/01/31 05:42:18;;;;;;;99.40;46.28;;;;;;;5.17;77.48;96091.63;4915871;29;20508;-79
2021/01/31 05:44:44;;;;;;;92.35;44.08;;;;;;;5.24;77.45;96107.97;4903164;29;20044;-79
2021/01/31 05:47:22;;;;;;;88.07;43.50;;;;;;;5.23;78.07;96115.06;4915815;29;20028;-79
2021/01/31 05:49:50;;;;;;;92.15;43.65;;;;;;;5.24;77.62;96121.22;4932217;29;20043;-80
2021/01/31 05:52:18;;;;;;;128.23;56.38;;;;;;;5.31;76.22;96130.50;4903624;29;20039;-79
2021/01/31 05:54:45;;;;;;;122.53;55.35;;;;;;;5.45;75.29;96133.09;4918969;29;20038;-79
2021/01/31 05:57:24;;;;;;;109.53;49.55;;;;;;;5.60;74.95;96134.75;4919226;29;20034;-79
2021/01/31 06:00:01;;;;;;;94.63;47.42;;;;;;;5.67;75.33;96117.50;4915370;29;20054;-79
2021/01/31 06:03:07;;;;;;;57.65;26.92;;;;;;;5.99;71.59;96116.28;4935040;29;20032;-79
2021/01/31 06:05:47;;;;;;;79.68;37.40;;;;;;;5.87;73.02;96098.53;4919440;29;20062;-78
2021/01/31 06:08:33;;;;;;;99.97;45.05;;;;;;;6.05;71.61;96080.50;4924760;29;20035;-79
2021/01/31 06:11:28;;;;;;;85.22;41.00;;;;;;;6.20;70.99;96091.88;4920788;29;20454;-79
2021/01/31 06:14:10;;;;;;;74.78;35.67;;;;;;;6.55;70.89;96116.88;4916417;29;20478;-79
2021/01/31 06:16:36;;;;;;;82.53;41.67;;;;;;;6.68;70.72;96111.53;4915718;29;20575;-79
2021/01/31 06:19:10;;;;;;;62.60;30.27;;;;;;;6.82;69.53;96127.38;4915584;29;20020;-79
2021/01/31 06:21:44;;;;;;;82.65;41.55;;;;;;;7.01;70.29;96128.63;4915272;29;20118;-79
2021/01/31 06:24:36;;;;;;;60.42;30.83;;;;;;;7.00;66.75;96118.13;4902510;29;20087;-79
2021/01/31 06:27:03;;;;;;;75.40;37.13;;;;;;;7.23;68.47;96140.44;4917996;29;20099;-78
2021/01/31 06:29:38;;;;;;;75.38;38.35;;;;;;;7.16;69.98;96145.31;4912114;29;20078;-79
2021/01/31 06:32:25;;;;;;;52.28;25.83;;;;;;;7.22;66.28;96154.66;4910390;29;20040;-81
2021/01/31 06:34:55;;;;;;;10.85;6.30;;;;;;;7.72;58.07;96157.19;4902115;29;20504;-79
2021/01/31 06:37:26;;;;;;;9.95;5.88;;;;;;;8.31;55.36;96158.13;4903829;29;20046;-79
2021/01/31 06:40:13;;;;;;;6.05;3.53;;;;;;;8.84;52.70;96153.16;4918000;29;20086;-79
2021/01/31 06:43:08;;;;;;;10.00;5.28;;;;;;;9.15;50.77;96145.34;4890467;29;20520;-79
2021/01/31 06:45:45;;;;;;;8.93;4.97;;;;;;;9.44;49.00;96144.84;4899744;29;20063;-79
2021/01/31 06:48:16;;;;;;;12.20;6.15;;;;;;;9.62;48.31;96160.25;4917540;29;20114;-76
2021/01/31 06:51:00;;;;;;;21.60;10.83;;;;;;;9.70;50.19;96171.13;4918229;29;20031;-77
2021/01/31 06:53:51;;;;;;;11.75;6.43;;;;;;;9.75;49.39;96162.78;4930477;29;20276;-80
2021/01/31 06:57:00;;;;;;;13.40;6.88;;;;;;;9.85;48.74;96171.72;4927030;29;20089;-77
2021/01/31 06:59:54;;;;;;;24.15;11.93;;;;;;;9.92;51.07;96167.56;4905459;29;20651;-78
2021/01/31 07:02:37;;;;;;;10.90;5.60;;;;;;;10.02;46.16;96167.69;4917604;29;20186;-77
2021/01/31 07:05:05;;;;;;;13.18;6.68;;;;;;;10.11;47.16;96178.47;4915509;29;20043;-78
2021/01/31 07:07:37;;;;;;;13.23;6.90;;;;;;;10.21;45.97;96174.06;4914394;29;20031;-80
2021/01/31 07:10:39;;;;;;;18.93;10.87;;;;;;;10.22;46.70;96182.94;4926028;29;20504;-79
2021/01/31 07:13:27;;;;;;;33.57;18.23;;;;;;;9.90;52.25;96190.91;4917374;29;20522;-78
2021/01/31 07:16:12;;;;;;;33.60;19.17;;;;;;;9.49;55.66;96180.88;4914271;29;20417;-79
2021/01/31 07:19:07;;;;;;;28.65;15.20;;;;;;;9.19;58.90;96180.63;4912217;29;20035;-78
2021/01/31 07:21:45;;;;;;;28.17;14.65;;;;;;;9.32;56.67;96177.84;4891842;29;20031;-79
2021/01/31 07:24:16;;;;;;;49.50;22.33;;;;;;;9.41;58.29;96177.13;4932665;29;20047;-79
2021/01/31 07:26:52;;;;;;;29.40;16.00;;;;;;;9.56;55.86;96165.22;4901763;29;20440;-79
2021/01/31 07:29:34;;;;;;;58.67;31.42;;;;;;;9.80;56.09;96169.44;4901200;29;20056;-77
2021/01/31 07:32:01;;;;;;;65.97;36.13;;;;;;;10.53;53.33;96174.06;4930253;29;20512;-80
2021/01/31 07:34:34;;;;;;;68.47;30.23;;;;;;;11.30;49.23;96164.72;4914037;29;20064;-78
2021/01/31 07:37:03;;;;;;;;;;;;;;;11.47;48.15;96165.09;4917840;29;20548;-78
2021/01/31 07:40:03;;;;;;;22.05;10.75;;;;;;;11.67;47.21;96161.50;4948976;29;19922;-78
2021/01/31 07:42:31;;;;;;;20.83;10.98;;;;;;;12.45;43.81;96165.09;4898728;29;20040;-79
2021/01/31 07:45:00;;;;;;;24.88;11.25;;;;;;;13.20;38.98;96161.66;4898189;29;20071;-80
2021/01/31 07:47:26;;;;;;;21.13;11.93;;;;;;;13.56;38.52;96165.38;4908923;29;20467;-75
2021/01/31 07:49:55;;;;;;;11.95;5.57;;;;;;;13.42;36.38;96163.13;4911191;29;20028;-78
2021/01/31 07:52:23;;;;;;;5.70;3.83;;;;;;;13.12;37.26;96145.44;4916442;29;20565;-78
2021/01/31 07:54:48;;;;;;;7.45;4.57;;;;;;;13.05;38.35;96157.69;4919010;29;20160;-77
2021/01/31 07:57:19;;;;;;;10.38;5.63;;;;;;;12.90;37.60;96154.63;4911197;29;20468;-85
2021/01/31 07:59:44;;;;;;;20.88;11.40;;;;;;;12.92;37.83;96149.94;4920174;29;20171;-81
2021/01/31 08:02:49;;;;;;;16.73;9.43;;;;;;;12.90;36.51;96140.34;4900111;29;20076;-79
2021/01/31 08:05:53;;;;;;;11.48;7.43;;;;;;;13.09;37.65;96155.59;4914723;29;20043;-80
2021/01/31 08:08:47;;;;;;;8.13;5.55;;;;;;;13.10;36.47;96152.78;4918722;29;20044;-77
2021/01/31 08:11:16;;;;;;;33.47;20.58;;;;;;;13.04;37.87;96158.69;4931897;29;20020;-76
2021/01/31 08:13:49;;;;;;;13.70;6.70;;;;;;;12.78;36.85;96155.75;4922825;29;20027;-80
2021/01/31 08:16:48;;;;;;;17.92;9.27;;;;;;;12.90;35.73;96159.97;4903233;29;20047;-80
2021/01/31 08:19:17;;;;;;;7.97;4.88;;;;;;;12.85;35.74;96156.03;4916655;29;20023;-80
2021/01/31 08:22:13;;;;;;;7.25;4.13;;;;;;;12.87;35.65;96154.06;4932564;29;20484;-80
2021/01/31 08:25:12;;;;;;;90.95;46.70;;;;;;;12.89;37.19;96158.28;4916081;29;20051;-80
2021/01/31 08:27:40;;;;;;;9.90;5.75;;;;;;;13.01;36.26;96156.31;4933616;29;20059;-79
2021/01/31 08:30:20;;;;;;;9.93;6.28;;;;;;;13.10;36.10;96171.56;4917427;29;20051;-80
2021/01/31 08:33:03;;;;;;;10.93;4.95;;;;;;;13.19;34.84;96167.19;4915964;29;20032;-80
2021/01/31 08:35:56;;;;;;;9.93;5.72;;;;;;;13.52;35.10;96172.03;4933934;29;20099;-78
2021/01/31 08:38:25;;;;;;;;;;;;;;;13.77;35.25;96175.88;4938561;29;20504;-79
2021/01/31 08:41:02;;;;;;;30.17;16.02;;;;;;;14.39;35.76;96189.44;4950727;29;19937;-80
2021/01/31 08:43:50;;;;;;;19.88;9.57;;;;;;;14.97;36.74;96189.84;4918024;29;20024;-80
2021/01/31 08:46:31;;;;;;;11.45;7.43;;;;;;;15.39;36.66;96194.53;4933841;29;20457;-80
2021/01/31 08:49:10;;;;;;;18.45;9.32;;;;;;;14.97;37.28;96205.16;4947022;29;20055;-80
2021/01/31 08:51:38;;;;;;;23.02;10.90;;;;;;;14.92;38.30;96200.22;4918008;29;20090;-80
2021/01/31 08:54:05;;;;;;;21.35;9.70;;;;;;;14.88;37.89;96203.38;4918882;29;20023;-80
2021/01/31 08:56:39;;;;;;;9.82;5.45;;;;;;;14.67;36.47;96208.22;4916287;29;20028;-80
2021/01/31 08:59:08;;;;;;;11.98;7.97;;;;;;;14.50;37.21;96199.13;4918807;29;20042;-80
2021/01/31 09:01:41;;;;;;;13.18;7.75;;;;;;;14.34;37.04;96196.25;4903182;29;20035;-80
2021/01/31 09:04:08;;;;;;;17.63;10.13;;;;;;;14.23;37.44;96194.59;4917592;29;20047;-80
2021/01/31 09:06:38;;;;;;;17.13;5.47;;;;;;;14.02;36.68;96191.31;4901015;29;20532;-79
2021/01/31 09:09:05;;;;;;;18.30;7.57;;;;;;;14.32;35.83;96187.47;4923780;29;20058;-79
2021/01/31 09:11:34;;;;;;;17.33;7.50;;;;;;;14.53;36.51;96199.69;4916456;29;20519;-79
2021/01/31 09:14:16;;;;;;;13.23;6.57;;;;;;;14.97;33.72;96194.38;4902550;29;20067;-81
2021/01/31 09:16:42;;;;;;;21.38;10.80;;;;;;;15.13;36.62;96191.81;4918649;29;20035;-81
2021/01/31 09:19:10;;;;;;;17.13;9.52;;;;;;;15.27;37.39;96201.19;4915660;29;20032;-79
2021/01/31 09:21:36;;;;;;;46.30;22.40;;;;;;;15.25;38.25;96193.28;4930328;29;20036;-79
2021/01/31 09:24:06;;;;;;;13.60;7.90;;;;;;;15.20;36.86;96184.78;4901533;29;20119;-80
2021/01/31 09:26:32;;;;;;;16.42;8.02;;;;;;;15.18;38.05;96184.13;4917852;29;20051;-78
2021/01/31 09:28:59;;;;;;;12.73;6.35;;;;;;;15.11;33.84;96175.81;4906891;29;20594;-80
2021/01/31 09:31:27;;;;;;;8.10;4.85;;;;;;;15.25;33.24;96157.41;4906418;29;20036;-81
2021/01/31 09:33:58;;;;;;;5.05;3.22;;;;;;;15.26;32.00;96161.78;4909230;29;20102;-80
2021/01/31 09:36:27;;;;;;;13.63;8.25;;;;;;;15.23;35.23;96171.00;4901915;29;20412;-79
2021/01/31 09:38:53;;;;;;;21.23;13.60;;;;;;;15.22;36.51;96184.66;4902047;29;20043;-79
2021/01/31 09:41:21;;;;;;;13.40;7.90;;;;;;;14.77;36.18;96182.06;4904576;29;20048;-79
2021/01/31 09:43:51;;;;;;;7.75;4.55;;;;;;;14.73;35.79;96180.69;4931000;29;20088;-80
2021/01/31 09:46:17;;;;;;;11.60;6.00;;;;;;;14.89;36.89;96188.94;4897610;29;20428;-79
2021/01/31 09:48:43;;;;;;;12.43;5.55;;;;;;;14.87;37.43;96193.59;4925625;29;20107;-79
2021/01/31 09:51:22;;;;;;;10.02;5.88;;;;;;;14.74;36.15;96195.81;4904784;29;20056;-82
2021/01/31 09:53:48;;;;;;;27.73;13.75;;;;;;;14.56;38.38;96202.06;4904330;29;20040;-80
2021/01/31 09:56:43;;;;;;;22.40;10.73;;;;;;;14.32;39.27;96201.78;4899038;29;20036;-81
2021/01/31 09:59:28;;;;;;;50.67;27.58;;;;;;;14.21;38.22;96202.00;4909738;29;20535;-80
2021/01/31 10:02:03;;;;;;;28.88;17.92;;;;;;;14.05;39.00;96191.88;4937889;29;20039;-79
2021/01/31 10:04:29;;;;;;;37.03;21.95;;;;;;;14.00;38.92;96185.22;4890562;29;20044;-76
2021/01/31 10:07:09;;;;;;;41.17;22.42;;;;;;;14.08;38.59;96199.66;4901044;29;20033;-80
2021/01/31 10:09:41;;;;;;;25.58;14.55;;;;;;;13.99;38.92;96192.47;4894438;29;20033;-80
2021/01/31 10:12:15;;;;;;;17.63;8.52;;;;;;;14.01;37.52;96195.00;4913539;29;20044;-79
2021/01/31 10:14:42;;;;;;;9.07;5.35;;;;;;;14.01;37.44;96192.31;4914816;29;20028;-79
2021/01/31 10:17:27;;;;;;;12.93;7.88;;;;;;;14.01;35.75;96173.50;4910645;29;20036;-82
2021/01/31 10:20:28;;;;;;;18.80;10.23;;;;;;;13.97;37.02;96189.06;4904256;29;20036;-79
2021/01/31 10:23:19;;;;;;;7.25;3.85;;;;;;;13.95;36.19;96176.78;4925589;29;20067;-78
2021/01/31 10:26:06;;;;;;;12.50;6.40;;;;;;;14.27;36.56;96181.72;4905638;29;20067;-81
2021/01/31 10:28:43;;;;;;;21.27;10.07;;;;;;;14.50;37.12;96177.59;4907662;29;20039;-84
2021/01/31 10:31:09;;;;;;;14.63;8.50;;;;;;;14.56;37.70;96174.31;4914166;29;20039;-76
2021/01/31 10:33:42;;;;;;;18.67;6.18;;;;;;;14.70;38.28;96181.84;4898446;29;20043;-76
2021/01/31 10:36:23;;;;;;;94.72;42.40;;;;;;;14.79;36.41;96177.38;4911011;29;20477;-84
2021/01/31 10:38:50;;;;;;;18.58;10.32;;;;;;;14.53;36.13;96175.47;4910659;29;20032;-77
2021/01/31 10:41:15;;;;;;;17.00;8.20;;;;;;;14.26;35.69;96156.66;4924758;29;20058;-77
2021/01/31 10:43:41;;;;;;;13.85;7.70;;;;;;;14.15;35.90;96167.59;4908614;29;20036;-76
2021/01/31 10:46:07;;;;;;;11.20;5.38;;;;;;;13.82;36.56;96168.22;4904876;29;20095;-76
2021/01/31 10:48:32;;;;;;;12.80;7.00;;;;;;;13.85;37.15;96162.53;4921320;29;20033;-78
2021/01/31 10:50:58;;;;;;;11.05;6.15;;;;;;;13.78;36.81;96161.47;4908333;29;20035;-76
2021/01/31 10:53:24;;;;;;;11.00;5.85;;;;;;;13.51;37.12;96136.25;4903032;29;20028;-78
2021/01/31 10:55:49;;;;;;;11.85;6.13;;;;;;;13.55;36.57;96148.41;4903645;29;20036;-76
2021/01/31 10:58:15;;;;;;;16.90;8.23;;;;;;;13.60;37.37;96131.81;4907433;29;20071;-75
2021/01/31 11:00:41;;;;;;;12.30;6.45;;;;;;;13.65;37.24;96137.63;4901839;29;20091;-76
2021/01/31 11:03:06;;;;;;;16.10;6.60;;;;;;;13.61;37.43;96135.34;4903053;29;20047;-75
2021/01/31 11:05:32;;;;;;;23.20;12.23;;;;;;;13.69;37.43;96124.72;4890253;29;20040;-76
2021/01/31 11:07:58;;;;;;;14.82;8.07;;;;;;;13.64;37.21;96121.63;4901923;29;20036;-76
2021/01/31 11:10:24;;;;;;;15.75;7.72;;;;;;;13.84;36.58;96131.31;4911014;29;20036;-76
2021/01/31 11:12:50;;;;;;;15.73;7.80;;;;;;;13.72;37.28;96127.13;4902852;29;20032;-76
2021/01/31 11:15:16;;;;;;;15.23;8.43;;;;;;;13.63;37.32;96125.31;4920925;29;20106;-77
2021/01/31 11:17:42;;;;;;;13.15;7.03;;;;;;;13.69;37.68;96122.88;4902283;29;20078;-76
2021/01/31 11:20:09;;;;;;;18.92;8.77;;;;;;;13.69;37.69;96124.72;4897552;29;20791;-84
2021/01/31 11:22:38;;;;;;;16.48;7.57;;;;;;;13.65;37.33;96099.16;4899488;29;20028;-83
2021/01/31 11:25:05;;;;;;;10.30;5.03;;;;;;;13.67;36.98;96113.25;4888071;29;20048;-84
2021/01/31 11:27:33;;;;;;;45.20;24.50;;;;;;;13.76;37.23;96104.31;4916408;29;20027;-83
2021/01/31 11:29:59;;;;;;;181.32;95.60;;;;;;;13.88;37.81;96113.84;4918258;29;20071;-82
2021/01/31 11:32:24;;;;;;;351.80;168.77;;;;;;;13.89;36.98;96105.66;4909895;29;20541;-80
2021/01/31 11:34:50;;;;;;;73.68;30.63;;;;;;;14.11;37.28;96115.16;4906142;29;20564;-81
2021/01/31 11:37:16;;;;;;;16.73;7.82;;;;;;;14.06;36.93;96106.66;4888182;29;20032;-82
2021/01/31 11:39:42;;;;;;;18.10;8.75;;;;;;;14.23;36.86;96103.16;4925590;29;20038;-82
2021/01/31 11:42:08;;;;;;;73.00;21.95;;;;;;;14.26;36.13;96091.25;4905600;29;20036;-81
2021/01/31 11:44:33;;;;;;;78.00;27.00;;;;;;;14.24;36.98;96115.63;4896825;29;20044;-82
2021/01/31 11:46:59;;;;;;;16.30;8.45;;;;;;;14.22;36.62;96117.59;4901971;29;20044;-83
2021/01/31 11:49:25;;;;;;;13.13;7.32;;;;;;;14.05;36.51;96105.00;4889205;29;20032;-82
2021/01/31 11:51:51;;;;;;;17.60;9.93;;;;;;;14.20;36.62;96111.53;4901551;29;20453;-83
2021/01/31 11:54:16;;;;;;;17.08;9.20;;;;;;;14.04;36.36;96079.94;4913724;29;20386;-82
2021/01/31 11:56:42;;;;;;;13.55;5.75;;;;;;;14.16;36.48;96077.88;4900247;29;20036;-83